PWSweather.com
Personal Weather Stations
Station Observations
GEELONGWX1
Bell Post Hill, GeelongAU

Bell Post HillGeelongAU

Lat: -38.101, Lon: 144.326

Elevation: 204

Station Type: Davis Vantage Pro2

http://www.geelongweather.com

Latest ConditionsUpdated 12:40:01 PM GMT+10:10 Tuesday, Jan 17, 2017
Currently Today's Max Today's Min Today's Average
Temperature 94.6°F34.8°C 97.1°F36.2°C 64.7°F18.2°C 75.2°F24.0°C
Dew Point 49.8°F9.9°C 58.5°F14.7°C 47.9°F8.8°C 54.8°F12.7°C
Winds 6.9 mph SSW11.1 kmh SSW 8.1 mph S13.0 kmh S - 1.0 mph 1.6 kmh
Wind Gusts 10.4 mph16.7 kmh 11.5 mph18.5 kmh - -
Humidity 22% 74% 19% 54%
Pressure 29.80 in1009.1 mb 29.88 in1011.9 mb 29.80 in1009.1 mb -
Hour Temp Dew Point Humidity Winds Wind Gusts Pressure Precip Precip Rate Daily Precip Total
12:40 PM 94.6°F34.8°C 49.8°F9.9°C 22% 6.9 mph SSW11.1 kmh SSW 10.4 mph16.7 kmh 29.80 in1009.1 mb - 0.00 in0.0 mm 0.00 in0.0 mm
12:30 PM 94.6°F34.8°C 49.9°F9.9°C 22% 6.9 mph S11.1 kmh S 11.5 mph18.5 kmh 29.80 in1009.1 mb - 0.00 in0.0 mm 0.00 in0.0 mm
12:20 PM 94.5°F34.7°C 48.5°F9.2°C 21% 6.9 mph S11.1 kmh S 9.2 mph14.8 kmh 29.81 in1009.5 mb - 0.00 in0.0 mm 0.00 in0.0 mm
12:10 PM 95.5°F35.3°C 48.1°F8.9°C 20% 5.8 mph S9.3 kmh S 8.1 mph13.0 kmh 29.81 in1009.5 mb - 0.00 in0.0 mm 0.00 in0.0 mm
12:00 PM 96.2°F35.7°C 48.6°F9.2°C 20% 3.5 mph S5.6 kmh S 5.8 mph9.3 kmh 29.81 in1009.5 mb - 0.00 in0.0 mm 0.00 in0.0 mm
11:50 AM 97.0°F36.1°C 47.9°F8.8°C 19% 5.8 mph S9.3 kmh S 6.9 mph11.1 kmh 29.81 in1009.5 mb - 0.00 in0.0 mm 0.00 in0.0 mm
11:40 AM 97.1°F36.2°C 50.7°F10.4°C 21% 4.6 mph S7.4 kmh S 5.8 mph9.3 kmh 29.81 in1009.5 mb - 0.00 in0.0 mm 0.00 in0.0 mm
11:30 AM 96.7°F35.9°C 49.0°F9.4°C 20% 8.1 mph SSW13.0 kmh SSW 11.5 mph18.5 kmh 29.82 in1009.8 mb - 0.00 in0.0 mm 0.00 in0.0 mm
11:20 AM 96.0°F35.6°C 52.2°F11.2°C 23% 3.5 mph S5.6 kmh S 4.6 mph7.4 kmh 29.82 in1009.8 mb - 0.00 in0.0 mm 0.00 in0.0 mm
11:10 AM 94.4°F34.7°C 52.0°F11.1°C 24% Calm Calm 1.2 mph1.9 kmh 29.82 in1009.8 mb - 0.00 in0.0 mm 0.00 in0.0 mm
11:00 AM 94.0°F34.4°C 53.9°F12.2°C 26% Calm Calm 1.2 mph1.9 kmh 29.83 in1010.2 mb - 0.00 in0.0 mm 0.00 in0.0 mm
10:50 AM 94.0°F34.4°C 52.8°F11.6°C 25% Calm Calm 1.2 mph1.9 kmh 29.83 in1010.2 mb - 0.00 in0.0 mm 0.00 in0.0 mm
10:40 AM 94.0°F34.4°C 53.9°F12.2°C 26% 3.5 mph SSW5.6 kmh SSW 8.1 mph13.0 kmh 29.83 in1010.2 mb - 0.00 in0.0 mm 0.00 in0.0 mm
10:30 AM 93.8°F34.3°C 55.8°F13.2°C 28% Calm Calm -- 29.83 in1010.2 mb - 0.00 in0.0 mm 0.00 in0.0 mm
10:20 AM 94.2°F34.6°C 55.1°F12.8°C 27% Calm Calm -- 29.83 in1010.2 mb - 0.00 in0.0 mm 0.00 in0.0 mm
10:10 AM 94.0°F34.4°C 55.9°F13.3°C 28% Calm Calm 1.2 mph1.9 kmh 29.84 in1010.5 mb - 0.00 in0.0 mm 0.00 in0.0 mm
10:00 AM 93.6°F34.2°C 54.6°F12.6°C 27% Calm Calm 1.2 mph1.9 kmh 29.84 in1010.5 mb - 0.00 in0.0 mm 0.00 in0.0 mm
09:50 AM 92.7°F33.7°C 52.8°F11.6°C 26% Calm Calm -- 29.84 in1010.5 mb - 0.00 in0.0 mm 0.00 in0.0 mm
09:40 AM 90.1°F32.3°C 56.3°F13.5°C 32% Calm Calm 3.5 mph5.6 kmh 29.83 in1010.2 mb - 0.00 in0.0 mm 0.00 in0.0 mm
09:30 AM 87.4°F30.8°C 56.4°F13.6°C 35% Calm Calm -- 29.84 in1010.5 mb - 0.00 in0.0 mm 0.00 in0.0 mm
09:20 AM 85.3°F29.6°C 56.1°F13.4°C 37% 1.2 mph W1.9 kmh W 1.2 mph1.9 kmh 29.84 in1010.5 mb - 0.00 in0.0 mm 0.00 in0.0 mm
09:10 AM 83.3°F28.5°C 58.5°F14.7°C 43% Calm Calm -- 29.85 in1010.8 mb - 0.00 in0.0 mm 0.00 in0.0 mm
09:00 AM 81.2°F27.3°C 56.5°F13.6°C 43% Calm Calm -- 29.85 in1010.8 mb - 0.00 in0.0 mm 0.00 in0.0 mm
08:50 AM 79.2°F26.2°C 56.0°F13.3°C 45% Calm Calm 2.3 mph3.7 kmh 29.85 in1010.8 mb - 0.00 in0.0 mm 0.00 in0.0 mm
08:40 AM 77.9°F25.5°C 56.7°F13.7°C 48% Calm Calm -- 29.85 in1010.8 mb - 0.00 in0.0 mm 0.00 in0.0 mm
08:30 AM 76.2°F24.6°C 56.8°F13.8°C 51% 1.2 mph WSW1.9 kmh WSW 2.3 mph3.7 kmh 29.85 in1010.8 mb - 0.00 in0.0 mm 0.00 in0.0 mm
08:20 AM 74.8°F23.8°C 57.0°F13.9°C 54% Calm Calm -- 29.86 in1011.2 mb - 0.00 in0.0 mm 0.00 in0.0 mm
08:10 AM 73.2°F22.9°C 57.1°F13.9°C 57% Calm Calm -- 29.86 in1011.2 mb - 0.00 in0.0 mm 0.00 in0.0 mm
08:00 AM 72.3°F22.4°C 57.6°F14.2°C 60% Calm Calm -- 29.86 in1011.2 mb - 0.00 in0.0 mm 0.00 in0.0 mm
07:50 AM 71.4°F21.9°C 57.7°F14.3°C 62% Calm Calm -- 29.86 in1011.2 mb - 0.00 in0.0 mm 0.00 in0.0 mm
07:40 AM 70.3°F21.3°C 58.0°F14.4°C 65% Calm Calm -- 29.87 in1011.5 mb - 0.00 in0.0 mm 0.00 in0.0 mm
07:30 AM 69.1°F20.6°C 58.5°F14.7°C 69% Calm Calm -- 29.86 in1011.2 mb - 0.00 in0.0 mm 0.00 in0.0 mm
07:20 AM 67.5°F19.7°C 58.1°F14.5°C 72% Calm Calm -- 29.86 in1011.2 mb - 0.00 in0.0 mm 0.00 in0.0 mm
07:10 AM 66.5°F19.2°C 57.2°F14.0°C 72% Calm Calm -- 29.87 in1011.5 mb - 0.00 in0.0 mm 0.00 in0.0 mm
07:00 AM 66.1°F18.9°C 57.2°F14.0°C 73% Calm Calm -- 29.88 in1011.9 mb - 0.00 in0.0 mm 0.00 in0.0 mm
06:50 AM 65.8°F18.8°C 57.2°F14.0°C 74% Calm Calm -- 29.87 in1011.5 mb - 0.00 in0.0 mm 0.00 in0.0 mm
06:40 AM 65.3°F18.5°C 56.8°F13.8°C 74% Calm Calm -- 29.86 in1011.2 mb - 0.00 in0.0 mm 0.00 in0.0 mm
06:30 AM 65.1°F18.4°C 56.2°F13.4°C 73% Calm Calm -- 29.86 in1011.2 mb - 0.00 in0.0 mm 0.00 in0.0 mm
06:20 AM 64.9°F18.3°C 56.0°F13.3°C 73% Calm Calm -- 29.86 in1011.2 mb - 0.00 in0.0 mm 0.00 in0.0 mm
06:10 AM 64.8°F18.2°C 55.9°F13.3°C 73% Calm Calm -- 29.85 in1010.8 mb - 0.00 in0.0 mm 0.00 in0.0 mm
06:00 AM 64.7°F18.2°C 55.5°F13.1°C 72% Calm Calm -- 29.85 in1010.8 mb - 0.00 in0.0 mm 0.00 in0.0 mm
05:50 AM 64.8°F18.2°C 55.2°F12.9°C 71% Calm Calm -- 29.84 in1010.5 mb - 0.00 in0.0 mm 0.00 in0.0 mm
05:40 AM 64.9°F18.3°C 55.3°F12.9°C 71% Calm Calm -- 29.85 in1010.8 mb - 0.00 in0.0 mm 0.00 in0.0 mm
05:30 AM 65.0°F18.3°C 55.4°F13.0°C 71% Calm Calm -- 29.84 in1010.5 mb - 0.00 in0.0 mm 0.00 in0.0 mm
05:20 AM 65.0°F18.3°C 55.0°F12.8°C 70% Calm Calm -- 29.84 in1010.5 mb - 0.00 in0.0 mm 0.00 in0.0 mm
05:10 AM 65.1°F18.4°C 55.1°F12.8°C 70% Calm Calm -- 29.84 in1010.5 mb - 0.00 in0.0 mm 0.00 in0.0 mm
05:00 AM 65.2°F18.4°C 55.2°F12.9°C 70% Calm Calm -- 29.84 in1010.5 mb - 0.00 in0.0 mm 0.00 in0.0 mm
04:50 AM 65.2°F18.4°C 54.8°F12.7°C 69% Calm Calm -- 29.83 in1010.2 mb - 0.00 in0.0 mm 0.00 in0.0 mm
04:40 AM 65.4°F18.6°C 55.0°F12.8°C 69% Calm Calm -- 29.83 in1010.2 mb - 0.00 in0.0 mm 0.00 in0.0 mm
04:30 AM 65.5°F18.6°C 55.1°F12.8°C 69% Calm Calm -- 29.83 in1010.2 mb - 0.00 in0.0 mm 0.00 in0.0 mm
04:20 AM 65.7°F18.7°C 54.9°F12.7°C 68% 5.8 mph S9.3 kmh S 8.1 mph13.0 kmh 29.83 in1010.2 mb - 0.00 in0.0 mm 0.00 in0.0 mm
04:10 AM 66.0°F18.9°C 54.7°F12.6°C 67% 4.6 mph S7.4 kmh S 8.1 mph13.0 kmh 29.83 in1010.2 mb - 0.00 in0.0 mm 0.00 in0.0 mm
04:00 AM 66.3°F19.1°C 54.6°F12.6°C 66% 8.1 mph S13.0 kmh S 11.5 mph18.5 kmh 29.82 in1009.8 mb - 0.00 in0.0 mm 0.00 in0.0 mm
03:50 AM 66.6°F19.2°C 54.5°F12.5°C 65% 3.5 mph S5.6 kmh S 3.5 mph5.6 kmh 29.82 in1009.8 mb - 0.00 in0.0 mm 0.00 in0.0 mm
03:40 AM 66.8°F19.3°C 53.8°F12.1°C 63% Calm Calm -- 29.81 in1009.5 mb - 0.00 in0.0 mm 0.00 in0.0 mm
03:30 AM 66.8°F19.3°C 53.4°F11.9°C 62% Calm Calm -- 29.81 in1009.5 mb - 0.00 in0.0 mm 0.00 in0.0 mm
03:20 AM 66.9°F19.4°C 53.9°F12.2°C 63% Calm Calm -- 29.81 in1009.5 mb - 0.00 in0.0 mm 0.00 in0.0 mm
03:10 AM 66.9°F19.4°C 53.9°F12.2°C 63% Calm Calm -- 29.81 in1009.5 mb - 0.00 in0.0 mm 0.00 in0.0 mm
03:00 AM 66.9°F19.4°C 54.3°F12.4°C 64% Calm Calm -- 29.81 in1009.5 mb - 0.00 in0.0 mm 0.00 in0.0 mm
02:50 AM 67.0°F19.4°C 54.8°F12.7°C 65% Calm Calm -- 29.82 in1009.8 mb - 0.00 in0.0 mm 0.00 in0.0 mm
02:40 AM 67.1°F19.5°C 55.0°F12.8°C 65% Calm Calm -- 29.81 in1009.5 mb - 0.00 in0.0 mm 0.00 in0.0 mm
02:30 AM 67.2°F19.6°C 55.0°F12.8°C 65% Calm Calm -- 29.81 in1009.5 mb - 0.00 in0.0 mm 0.00 in0.0 mm
02:20 AM 67.4°F19.7°C 55.2°F12.9°C 65% Calm Calm -- 29.82 in1009.8 mb - 0.00 in0.0 mm 0.00 in0.0 mm
02:10 AM 67.6°F19.8°C 55.0°F12.8°C 64% Calm Calm -- 29.82 in1009.8 mb - 0.00 in0.0 mm 0.00 in0.0 mm
02:00 AM 67.7°F19.8°C 54.6°F12.6°C 63% Calm Calm -- 29.82 in1009.8 mb - 0.00 in0.0 mm 0.00 in0.0 mm
01:50 AM 67.8°F19.9°C 54.7°F12.6°C 63% Calm Calm -- 29.82 in1009.8 mb - 0.00 in0.0 mm 0.00 in0.0 mm
01:40 AM 67.9°F19.9°C 54.8°F12.7°C 63% Calm Calm -- 29.82 in1009.8 mb - 0.00 in0.0 mm 0.00 in0.0 mm
01:30 AM 67.9°F19.9°C 54.8°F12.7°C 63% Calm Calm -- 29.82 in1009.8 mb - 0.00 in0.0 mm 0.00 in0.0 mm
01:20 AM 67.9°F19.9°C 55.3°F12.9°C 64% Calm Calm -- 29.83 in1010.2 mb - 0.00 in0.0 mm 0.00 in0.0 mm
01:10 AM 67.8°F19.9°C 55.2°F12.9°C 64% Calm Calm -- 29.83 in1010.2 mb - 0.00 in0.0 mm 0.00 in0.0 mm
01:00 AM 67.7°F19.8°C 55.1°F12.8°C 64% Calm Calm -- 29.83 in1010.2 mb - 0.00 in0.0 mm 0.00 in0.0 mm
12:50 AM 67.6°F19.8°C 55.0°F12.8°C 64% Calm Calm -- 29.84 in1010.5 mb - 0.00 in0.0 mm 0.00 in0.0 mm
12:40 AM 67.4°F19.7°C 55.2°F12.9°C 65% Calm Calm -- 29.84 in1010.5 mb - 0.00 in0.0 mm 0.00 in0.0 mm
12:30 AM 67.1°F19.5°C 55.4°F13.0°C 66% Calm Calm -- 29.84 in1010.5 mb - 0.00 in0.0 mm 0.00 in0.0 mm
12:20 AM 66.9°F19.4°C 55.6°F13.1°C 67% Calm Calm -- 29.84 in1010.5 mb - 0.00 in0.0 mm 0.00 in0.0 mm
12:10 AM 66.9°F19.4°C 55.6°F13.1°C 67% Calm Calm -- 29.84 in1010.5 mb - 0.00 in0.0 mm 0.00 in0.0 mm
12:00 AM 66.9°F19.4°C 56.0°F13.3°C 68% Calm Calm -- 29.85 in1010.8 mb - 0.00 in0.0 mm 0.00 in0.0 mm